Time;durP1;ratioP1;P1;durP2;ratioP2;P2;SDS_P1;SDS_P2;PMS_P1;PMS_P2;Temp;Humidity;BMP_temperature;BMP_pressure;BME280_temperature;BME280_humidity;BME280_pressure;Samples;Min_cycle;Max_cycle;Signal;HPM_P1;HPM_P2
2022/07/24 00:00:26;;;;;;;13.18;5.45;;;;;;;23.59;37.19;94080.56;5124092;28;20065;-76
2022/07/24 00:02:51;;;;;;;20.15;5.43;;;;;;;23.52;37.88;94074.34;5124030;28;20027;-76
2022/07/24 00:05:17;;;;;;;14.50;4.75;;;;;;;23.44;38.07;94084.44;5123935;28;20043;-76
2022/07/24 00:07:43;;;;;;;15.18;5.82;;;;;;;23.40;38.21;94079.00;5124165;28;20251;-75
2022/07/24 00:10:10;;;;;;;14.18;4.75;;;;;;;23.35;38.14;94075.91;5124128;28;20070;-76
2022/07/24 00:12:35;;;;;;;20.30;5.95;;;;;;;23.34;37.47;94085.22;5122638;28;20098;-76
2022/07/24 00:15:01;;;;;;;16.95;5.25;;;;;;;23.32;37.23;94076.69;5123729;28;20256;-75
2022/07/24 00:17:26;;;;;;;14.68;5.05;;;;;;;23.29;37.59;94067.34;5123462;28;20042;-75
2022/07/24 00:19:52;;;;;;;18.15;5.78;;;;;;;23.29;37.72;94075.53;5123864;28;20377;-75
2022/07/24 00:22:17;;;;;;;14.93;6.25;;;;;;;23.29;37.86;94075.53;5123724;28;20038;-75
2022/07/24 00:24:43;;;;;;;10.52;5.65;;;;;;;23.28;38.01;94084.81;5123541;28;20050;-75
2022/07/24 00:27:08;;;;;;;10.52;4.68;;;;;;;23.23;38.25;94077.06;5123590;28;20083;-75
2022/07/24 00:29:34;;;;;;;15.77;5.63;;;;;;;23.19;38.21;94074.34;5123618;28;20402;-75
2022/07/24 00:31:59;;;;;;;18.23;5.35;;;;;;;23.19;37.47;94084.44;5123360;28;20092;-75
2022/07/24 00:34:24;;;;;;;12.10;5.80;;;;;;;23.16;38.13;94080.56;5123496;28;20015;-75
2022/07/24 00:36:50;;;;;;;17.83;6.13;;;;;;;23.15;38.69;94072.81;5123640;28;20098;-75
2022/07/24 00:39:15;;;;;;;12.07;5.03;;;;;;;23.07;38.99;94076.69;5123325;28;20107;-75
2022/07/24 00:41:41;;;;;;;18.17;6.28;;;;;;;22.98;39.25;94071.59;5123020;28;20016;-75
2022/07/24 00:44:09;;;;;;;12.23;4.40;;;;;;;22.90;39.56;94057.22;5123388;28;20023;-75
2022/07/24 00:46:36;;;;;;;17.63;5.13;;;;;;;22.87;39.48;94068.84;5123285;28;20121;-75
2022/07/24 00:49:05;;;;;;;12.18;5.00;;;;;;;22.82;39.53;94077.41;5123047;28;20023;-75
2022/07/24 00:51:30;;;;;;;13.40;5.15;;;;;;;22.81;40.03;94065.72;5123314;28;20027;-75
2022/07/24 00:53:56;;;;;;;9.85;4.18;;;;;;;22.81;40.14;94067.69;5123189;28;20089;-75
2022/07/24 00:56:21;;;;;;;12.32;5.75;;;;;;;22.78;39.91;94065.75;5123137;28;20297;-76
2022/07/24 00:58:48;;;;;;;13.15;4.82;;;;;;;22.75;39.33;94067.28;5123156;28;20016;-76
2022/07/24 01:01:15;;;;;;;11.77;4.05;;;;;;;22.75;37.59;94061.84;5123348;28;20226;-76
2022/07/24 01:03:41;;;;;;;14.18;5.03;;;;;;;22.75;38.00;94064.56;5123127;28;20050;-77
2022/07/24 01:06:07;;;;;;;12.75;4.45;;;;;;;22.77;37.50;94064.19;5123099;28;20022;-77
2022/07/24 01:08:34;;;;;;;19.88;6.25;;;;;;;22.80;37.46;94063.41;5123082;28;20015;-77
2022/07/24 01:11:01;;;;;;;17.45;5.88;;;;;;;22.79;37.97;94062.63;5123024;28;20019;-77
2022/07/24 01:13:26;;;;;;;15.45;5.35;;;;;;;22.73;39.34;94066.88;5123037;28;20024;-77
2022/07/24 01:15:52;;;;;;;13.27;5.63;;;;;;;22.71;40.13;94071.16;5122853;28;20117;-77
2022/07/24 01:18:18;;;;;;;18.63;5.50;;;;;;;22.70;38.89;94069.63;5123140;28;20377;-77
2022/07/24 01:20:47;;;;;;;16.60;5.07;;;;;;;22.73;38.55;94066.88;5123060;28;20038;-77
2022/07/24 01:23:13;;;;;;;11.60;5.13;;;;;;;22.66;38.71;94064.16;5121862;28;20111;-77
2022/07/24 01:25:39;;;;;;;16.65;5.63;;;;;;;22.63;39.18;94059.50;5122931;28;20310;-77
2022/07/24 01:28:04;;;;;;;19.42;6.55;;;;;;;22.61;39.84;94059.91;5122724;28;20023;-78
2022/07/24 01:30:30;;;;;;;15.40;4.97;;;;;;;22.61;40.23;94059.91;5123001;28;20065;-77
2022/07/24 01:32:55;;;;;;;16.13;7.25;;;;;;;22.59;40.48;94048.63;5122921;28;20077;-77
2022/07/24 01:35:21;;;;;;;22.40;5.97;;;;;;;22.51;40.97;94051.69;5122793;28;20202;-77
2022/07/24 01:37:46;;;;;;;13.75;5.55;;;;;;;22.47;41.62;94051.72;5122778;28;20023;-77
2022/07/24 01:40:12;;;;;;;13.70;5.32;;;;;;;22.47;41.69;94050.91;5123200;28;20020;-77
2022/07/24 01:42:37;;;;;;;15.27;5.93;;;;;;;22.43;41.45;94046.25;5122674;28;20031;-77
2022/07/24 01:45:03;;;;;;;8.02;4.50;;;;;;;22.36;41.34;94051.66;5122666;28;20049;-76
2022/07/24 01:47:29;;;;;;;10.63;4.72;;;;;;;22.29;41.89;94051.66;5122707;28;20028;-77
2022/07/24 01:49:54;;;;;;;15.30;5.32;;;;;;;22.21;41.81;94058.19;5122586;28;20255;-77
2022/07/24 01:52:20;;;;;;;9.73;4.93;;;;;;;22.13;41.26;94045.75;5122570;28;20317;-77
2022/07/24 01:54:45;;;;;;;15.40;5.45;;;;;;;22.06;41.86;94051.91;5125541;28;20058;-77
2022/07/24 01:57:11;;;;;;;16.42;6.78;;;;;;;22.03;41.75;94044.53;5126623;27;20023;-77
2022/07/24 01:59:36;;;;;;;16.38;6.20;;;;;;;21.97;42.19;94040.63;5126404;27;20055;-77
2022/07/24 02:02:02;;;;;;;19.10;5.50;;;;;;;21.96;42.68;94039.88;5126344;28;20080;-77
2022/07/24 02:04:27;;;;;;;14.73;5.07;;;;;;;21.94;43.24;94034.03;5126435;28;20020;-77
2022/07/24 02:06:52;;;;;;;11.45;5.10;;;;;;;21.92;43.09;94038.28;5126263;28;20019;-77
2022/07/24 02:09:18;;;;;;;13.35;5.60;;;;;;;21.88;43.56;94040.19;5126259;28;20329;-77
2022/07/24 02:11:44;;;;;;;14.80;5.47;;;;;;;21.86;43.98;94045.22;5126390;28;20027;-76
2022/07/24 02:14:09;;;;;;;17.35;7.78;;;;;;;21.80;43.26;94042.13;5126215;27;20321;-76
2022/07/24 02:16:35;;;;;;;18.38;6.13;;;;;;;21.76;42.50;94044.03;5126207;27;20043;-76
2022/07/24 02:19:00;;;;;;;15.05;6.38;;;;;;;21.71;42.17;94038.97;5126022;28;20031;-76
2022/07/24 02:21:26;;;;;;;22.55;6.90;;;;;;;21.67;42.97;94040.88;5126053;28;20042;-76
2022/07/24 02:23:51;;;;;;;18.27;7.78;;;;;;;21.69;42.96;94027.72;5126050;28;20051;-76
2022/07/24 02:26:17;;;;;;;18.75;7.85;;;;;;;21.67;43.39;94033.50;5126009;28;20031;-76
2022/07/24 02:28:42;;;;;;;13.48;6.07;;;;;;;21.66;44.57;94037.38;5125959;28;20019;-76
2022/07/24 02:31:08;;;;;;;15.73;6.38;;;;;;;21.68;44.91;94032.38;5125872;28;20462;-76
2022/07/24 02:33:33;;;;;;;16.30;7.25;;;;;;;21.67;44.85;94033.50;5125607;28;20064;-76
2022/07/24 02:35:59;;;;;;;13.48;6.07;;;;;;;21.64;44.86;94039.69;5125799;28;20027;-76
2022/07/24 02:38:24;;;;;;;18.83;5.95;;;;;;;21.65;44.89;94041.25;5125751;28;20069;-77
2022/07/24 02:40:50;;;;;;;21.13;7.25;;;;;;;21.63;44.65;94054.41;5125738;28;20023;-76
2022/07/24 02:43:15;;;;;;;17.65;6.45;;;;;;;21.54;44.54;94053.97;5125474;28;20019;-76
2022/07/24 02:45:41;;;;;;;13.90;6.38;;;;;;;21.51;44.53;94060.16;5125590;28;20251;-76
2022/07/24 02:48:06;;;;;;;27.42;6.15;;;;;;;21.46;44.42;94055.84;5125645;28;20020;-76
2022/07/24 02:50:35;;;;;;;18.00;7.28;;;;;;;21.40;44.39;94060.81;5125343;28;20062;-76
2022/07/24 02:53:01;;;;;;;17.90;6.95;;;;;;;21.33;44.62;94055.38;5125484;28;20019;-76
2022/07/24 02:55:28;;;;;;;18.83;6.30;;;;;;;21.28;44.39;94052.22;5125307;28;20015;-77
2022/07/24 02:57:55;;;;;;;13.23;6.13;;;;;;;21.24;45.26;94036.69;5125207;28;20019;-76
2022/07/24 03:00:21;;;;;;;15.88;6.57;;;;;;;21.21;45.55;94051.00;5125398;28;20022;-76
2022/07/24 03:02:46;;;;;;;15.90;6.43;;;;;;;21.20;46.28;94051.38;5125210;28;20023;-76
2022/07/24 03:05:13;;;;;;;15.30;6.18;;;;;;;21.17;46.31;94044.78;5125082;28;20095;-76
2022/07/24 03:07:38;;;;;;;11.98;5.85;;;;;;;21.17;47.00;94050.22;5124968;28;20039;-76
2022/07/24 03:10:06;;;;;;;19.60;6.28;;;;;;;21.16;46.72;94048.63;5125205;28;20038;-76
2022/07/24 03:12:31;;;;;;;21.20;7.30;;;;;;;21.12;46.50;94047.06;5124777;28;20270;-77
2022/07/24 03:14:57;;;;;;;20.75;6.63;;;;;;;21.15;46.23;94040.91;5124956;28;20019;-76
2022/07/24 03:17:22;;;;;;;16.27;7.47;;;;;;;21.11;46.29;94048.22;5125020;28;20044;-76
2022/07/24 03:19:47;;;;;;;16.50;7.35;;;;;;;21.12;46.91;94036.22;5125004;28;20023;-76
2022/07/24 03:22:13;;;;;;;21.10;6.63;;;;;;;21.12;47.01;94037.00;5124703;28;20073;-76
2022/07/24 03:24:38;;;;;;;14.10;7.20;;;;;;;21.13;48.01;94037.78;5124856;28;20058;-76
2022/07/24 03:27:04;;;;;;;18.30;7.07;;;;;;;21.11;47.90;94040.09;5123634;27;20302;-76
2022/07/24 03:29:29;;;;;;;12.60;6.50;;;;;;;21.08;48.69;94048.97;5124828;28;20260;-76
2022/07/24 03:31:55;;;;;;;22.38;6.57;;;;;;;21.08;48.28;94052.44;5124406;28;20094;-76
2022/07/24 03:34:20;;;;;;;17.65;7.10;;;;;;;21.10;48.03;94054.78;5124813;28;20043;-76
2022/07/24 03:36:46;;;;;;;14.93;7.03;;;;;;;21.11;47.89;94061.78;5124781;28;20027;-76
2022/07/24 03:39:11;;;;;;;16.90;7.22;;;;;;;21.09;49.17;94054.00;5124501;28;20023;-76
2022/07/24 03:41:37;;;;;;;21.27;6.38;;;;;;;21.02;48.51;94059.38;5124495;27;20322;-76
2022/07/24 03:44:03;;;;;;;19.00;6.47;;;;;;;21.03;49.48;94056.28;5124484;28;20337;-76
2022/07/24 03:46:28;;;;;;;21.55;6.63;;;;;;;21.04;48.71;94052.44;5124355;28;20039;-76
2022/07/24 03:48:54;;;;;;;14.80;6.80;;;;;;;21.02;48.28;94046.63;5124329;27;20020;-76
2022/07/24 03:51:21;;;;;;;12.35;6.32;;;;;;;21.03;48.25;94040.03;5124405;28;20313;-76
2022/07/24 03:53:46;;;;;;;16.88;6.47;;;;;;;21.06;48.82;94049.34;5124332;28;20020;-76
2022/07/24 03:56:12;;;;;;;10.98;5.75;;;;;;;21.11;48.19;94045.53;5124108;28;20258;-76
2022/07/24 03:58:38;;;;;;;15.00;5.85;;;;;;;21.18;47.79;94050.97;5124113;27;20025;-76
2022/07/24 04:01:03;;;;;;;18.40;5.15;;;;;;;21.24;47.37;94044.06;5124130;28;20022;-76
2022/07/24 04:03:29;;;;;;;12.38;5.72;;;;;;;21.28;47.31;94046.81;5123874;28;20097;-76
2022/07/24 04:05:54;;;;;;;14.82;5.78;;;;;;;21.28;47.19;94033.25;5124117;28;20302;-76
2022/07/24 04:08:20;;;;;;;14.32;6.25;;;;;;;21.30;47.09;94037.13;5124112;28;20218;-76
2022/07/24 04:10:45;;;;;;;19.50;5.03;;;;;;;21.38;47.63;94043.38;5123750;28;20023;-76
2022/07/24 04:13:12;;;;;;;11.80;5.57;;;;;;;21.45;47.60;94048.88;5123709;28;20270;-76
2022/07/24 04:15:37;;;;;;;15.95;5.50;;;;;;;21.48;48.04;94050.06;5123843;28;20049;-76
2022/07/24 04:18:03;;;;;;;14.82;6.60;;;;;;;21.50;48.34;94059.38;5123230;28;20032;-76
2022/07/24 04:20:28;;;;;;;14.48;6.50;;;;;;;21.50;48.07;94061.31;5123552;28;20019;-76
2022/07/24 04:22:54;;;;;;;14.23;7.00;;;;;;;21.49;47.67;94059.75;5123597;28;20340;-76
2022/07/24 04:25:19;;;;;;;12.38;5.90;;;;;;;21.48;47.73;94060.91;5123638;28;20027;-76
2022/07/24 04:27:46;;;;;;;14.00;6.13;;;;;;;21.49;47.01;94062.44;5123411;28;20019;-76
2022/07/24 04:30:12;;;;;;;18.42;6.15;;;;;;;21.52;47.15;94054.34;5123710;28;20027;-76
2022/07/24 04:32:38;;;;;;;14.43;7.18;;;;;;;21.58;46.82;94060.19;5123577;28;20276;-76
2022/07/24 04:35:05;;;;;;;10.82;6.25;;;;;;;21.68;47.08;94058.72;5123425;28;20050;-76
2022/07/24 04:37:30;;;;;;;19.92;5.32;;;;;;;21.78;48.13;94061.47;5123499;28;20275;-76
2022/07/24 04:39:56;;;;;;;20.30;5.95;;;;;;;21.89;47.22;94058.03;5123372;28;20020;-76
2022/07/24 04:42:21;;;;;;;13.73;6.03;;;;;;;22.04;46.25;94054.22;5123520;28;20324;-76
2022/07/24 04:44:47;;;;;;;16.42;6.13;;;;;;;22.12;47.76;94057.75;5123197;28;20019;-76
2022/07/24 04:47:13;;;;;;;15.15;6.88;;;;;;;22.19;48.94;94069.44;5123300;28;20027;-76
2022/07/24 04:49:38;;;;;;;18.00;6.18;;;;;;;22.24;49.98;94058.22;5123327;28;20306;-76
2022/07/24 04:52:04;;;;;;;11.80;6.13;;;;;;;22.20;49.34;94062.06;5123152;28;20023;-76
2022/07/24 04:54:29;;;;;;;24.58;7.35;;;;;;;22.17;48.68;94069.03;5123172;28;20092;-76
2022/07/24 04:56:55;;;;;;;17.67;6.95;;;;;;;22.11;47.30;94065.13;5123220;28;20023;-76
2022/07/24 04:59:20;;;;;;;15.75;7.07;;;;;;;22.12;47.35;94063.94;5123174;28;20027;-76
2022/07/24 05:01:46;;;;;;;11.65;6.70;;;;;;;22.14;46.79;94075.22;5122972;28;20024;-76
2022/07/24 05:04:11;;;;;;;17.70;7.50;;;;;;;22.13;46.64;94065.53;5123289;28;20023;-76
2022/07/24 05:06:37;;;;;;;22.60;8.43;;;;;;;22.18;45.62;94067.84;5123384;28;20247;-76
2022/07/24 05:09:02;;;;;;;21.25;7.93;;;;;;;22.29;46.63;94067.16;5122814;28;20205;-76
2022/07/24 05:11:28;;;;;;;20.77;7.13;;;;;;;22.37;47.42;94069.53;5123067;28;20038;-76
2022/07/24 05:13:53;;;;;;;19.35;7.55;;;;;;;22.46;46.41;94076.53;5123266;28;20191;-76
2022/07/24 05:16:19;;;;;;;24.55;7.97;;;;;;;22.54;46.00;94067.25;5122924;28;20051;-76
2022/07/24 05:18:44;;;;;;;16.48;7.57;;;;;;;22.62;45.29;94072.31;5123039;28;20090;-76
2022/07/24 05:21:10;;;;;;;22.55;8.43;;;;;;;22.70;44.31;94075.81;5122794;28;20023;-76
2022/07/24 05:23:35;;;;;;;20.45;7.60;;;;;;;22.74;44.41;94078.56;5122812;28;20027;-76
2022/07/24 05:26:01;;;;;;;16.02;9.00;;;;;;;22.73;44.27;94085.91;5123032;28;20098;-76
2022/07/24 05:28:26;;;;;;;24.67;9.07;;;;;;;22.77;43.95;94081.25;5123424;28;20037;-76
2022/07/24 05:30:52;;;;;;;23.85;8.13;;;;;;;22.83;43.64;94079.72;5127184;28;20019;-76
2022/07/24 05:33:17;;;;;;;16.77;8.25;;;;;;;22.82;43.33;94083.59;5127009;28;20294;-76
2022/07/24 05:35:43;;;;;;;17.85;7.88;;;;;;;22.92;43.21;94070.41;5127065;27;20195;-76
2022/07/24 05:38:08;;;;;;;24.77;7.65;;;;;;;23.02;43.65;94073.19;5126861;28;20080;-76
2022/07/24 05:40:34;;;;;;;18.33;7.65;;;;;;;23.16;43.33;94074.34;5125667;28;20314;-76
2022/07/24 05:42:59;;;;;;;18.83;8.20;;;;;;;23.27;43.04;94075.13;5126586;28;20027;-76
2022/07/24 05:45:24;;;;;;;20.85;7.68;;;;;;;23.40;43.89;94078.22;5127084;28;20094;-76
2022/07/24 05:47:50;;;;;;;12.80;6.90;;;;;;;23.47;44.67;94077.44;5126850;27;20332;-76
2022/07/24 05:50:15;;;;;;;20.55;8.43;;;;;;;23.59;43.63;94068.88;5126556;28;20054;-76
2022/07/24 05:52:42;;;;;;;19.40;7.78;;;;;;;23.70;41.85;94068.88;5126674;28;20309;-76
2022/07/24 05:55:08;;;;;;;16.83;7.15;;;;;;;23.82;40.98;94069.25;5126606;28;20043;-76
2022/07/24 05:57:33;;;;;;;13.77;7.10;;;;;;;23.95;41.80;94068.84;5126613;28;20248;-76
2022/07/24 05:59:59;;;;;;;20.23;6.47;;;;;;;24.06;38.37;94074.25;5126428;28;20073;-77
2022/07/24 06:02:24;;;;;;;16.00;6.63;;;;;;;24.10;38.66;94069.56;5126654;28;20031;-76
2022/07/24 06:04:50;;;;;;;15.70;7.22;;;;;;;24.21;38.45;94070.31;5126463;28;20049;-76
2022/07/24 06:07:16;;;;;;;14.85;7.22;;;;;;;24.28;37.90;94064.81;5126202;27;20023;-77
2022/07/24 06:09:41;;;;;;;23.95;6.82;;;;;;;24.37;38.25;94053.53;5126339;27;20091;-76
2022/07/24 06:12:07;;;;;;;19.55;6.65;;;;;;;24.49;41.38;94063.97;5126301;28;20314;-76
2022/07/24 06:14:33;;;;;;;12.68;6.53;;;;;;;24.55;39.66;94062.41;5126112;28;20020;-76
2022/07/24 06:16:59;;;;;;;16.13;8.35;;;;;;;24.63;39.96;94069.38;5125774;28;20120;-76
2022/07/24 06:19:25;;;;;;;23.25;6.85;;;;;;;24.62;38.80;94065.06;5126508;28;20019;-76
2022/07/24 06:21:51;;;;;;;20.35;7.38;;;;;;;24.68;38.78;94067.41;5125959;28;20019;-76
2022/07/24 06:24:16;;;;;;;22.30;7.20;;;;;;;24.69;39.75;94077.13;5125819;28;20424;-76
2022/07/24 06:26:42;;;;;;;22.58;7.00;;;;;;;24.72;40.07;94063.47;5126120;28;20061;-76
2022/07/24 06:29:07;;;;;;;19.83;7.32;;;;;;;24.73;39.78;94064.25;5125851;28;20028;-76
2022/07/24 06:31:33;;;;;;;18.80;7.72;;;;;;;24.78;39.28;94061.09;5125643;27;20044;-76
2022/07/24 06:33:58;;;;;;;27.63;8.57;;;;;;;24.86;39.15;94057.16;5125818;28;20217;-76
2022/07/24 06:36:24;;;;;;;21.77;7.63;;;;;;;24.87;39.06;94061.44;5125894;28;20103;-76
2022/07/24 06:38:49;;;;;;;20.83;7.80;;;;;;;24.92;38.89;94055.56;5125675;28;20046;-76
2022/07/24 06:41:15;;;;;;;23.15;7.50;;;;;;;24.94;39.13;94050.47;5125019;28;20028;-76
2022/07/24 06:43:41;;;;;;;20.65;7.53;;;;;;;24.95;39.46;94052.06;5125501;28;20034;-76
2022/07/24 06:46:06;;;;;;;19.00;7.47;;;;;;;25.01;39.02;94044.19;5125714;28;20019;-76
2022/07/24 06:48:32;;;;;;;19.60;8.57;;;;;;;25.10;39.09;94043.75;5125438;27;20031;-76
2022/07/24 06:50:57;;;;;;;16.65;9.15;;;;;;;25.19;38.94;94041.34;5125493;28;20023;-76
2022/07/24 06:53:23;;;;;;;17.65;8.77;;;;;;;25.24;38.80;94046.41;5125528;28;20031;-76
2022/07/24 06:55:52;;;;;;;23.25;7.35;;;;;;;25.12;38.66;94039.44;5125215;28;20333;-76
2022/07/24 06:58:18;;;;;;;22.38;8.90;;;;;;;25.25;38.55;94049.91;5125292;28;20031;-76
2022/07/24 07:00:43;;;;;;;22.95;9.45;;;;;;;25.34;38.38;94048.28;5125279;28;20070;-76
2022/07/24 07:03:09;;;;;;;24.98;8.07;;;;;;;25.43;37.99;94047.78;5125070;28;20031;-76
2022/07/24 07:05:34;;;;;;;25.73;8.45;;;;;;;25.59;38.02;94050.00;5125080;28;20075;-76
2022/07/24 07:08:00;;;;;;;23.58;8.15;;;;;;;25.65;37.50;94048.38;5125328;28;20088;-76
2022/07/24 07:10:25;;;;;;;23.23;8.55;;;;;;;25.72;36.83;94047.53;5125336;28;20334;-76
2022/07/24 07:12:50;;;;;;;20.45;7.95;;;;;;;25.75;36.84;94047.50;5124991;28;20028;-76
2022/07/24 07:15:16;;;;;;;19.02;7.88;;;;;;;25.88;36.41;94046.97;5124990;28;20039;-76
2022/07/24 07:17:42;;;;;;;16.58;7.43;;;;;;;26.00;36.06;94049.97;5124869;28;20070;-76
2022/07/24 07:20:09;;;;;;;20.80;8.43;;;;;;;26.13;35.88;94050.22;5124798;28;20064;-76
2022/07/24 07:22:35;;;;;;;19.95;8.02;;;;;;;26.20;36.37;94041.19;5124677;28;20314;-76
2022/07/24 07:25:00;;;;;;;21.52;9.20;;;;;;;26.25;37.77;94042.69;5124941;27;20026;-76
2022/07/24 07:27:26;;;;;;;24.55;7.72;;;;;;;26.33;36.42;94046.88;5124681;28;20030;-76
2022/07/24 07:29:51;;;;;;;27.90;8.18;;;;;;;26.38;35.54;94049.16;5124309;28;20069;-77
2022/07/24 07:32:17;;;;;;;19.10;7.90;;;;;;;26.43;35.34;94040.50;5124825;28;20469;-76
2022/07/24 07:34:43;;;;;;;16.88;7.70;;;;;;;26.53;35.35;94041.53;5124704;28;20086;-76
2022/07/24 07:37:08;;;;;;;18.88;8.50;;;;;;;26.59;34.45;94037.19;5124694;28;20072;-76
2022/07/24 07:39:33;;;;;;;23.30;7.43;;;;;;;26.72;33.97;94048.34;5124630;28;20030;-76
2022/07/24 07:41:59;;;;;;;18.10;6.70;;;;;;;26.77;33.96;94042.41;5124411;28;20268;-76
2022/07/24 07:44:24;;;;;;;13.50;7.20;;;;;;;26.91;33.92;94041.41;5124486;28;20090;-76
2022/07/24 07:46:50;;;;;;;14.52;7.80;;;;;;;27.01;35.48;94038.53;5124326;28;20061;-76
2022/07/24 07:49:15;;;;;;;19.33;7.07;;;;;;;27.13;32.58;94041.88;5124403;27;20027;-76
2022/07/24 07:51:41;;;;;;;20.92;6.85;;;;;;;27.21;34.13;94035.88;5123327;28;20113;-76
2022/07/24 07:54:06;;;;;;;15.18;7.38;;;;;;;27.31;32.40;94033.41;5124130;28;20381;-76
2022/07/24 07:56:32;;;;;;;16.40;6.63;;;;;;;27.36;31.39;94028.25;5124242;28;20264;-76
2022/07/24 07:58:58;;;;;;;20.67;7.55;;;;;;;27.40;31.05;94030.91;5124345;28;20027;-76
2022/07/24 08:01:23;;;;;;;26.75;7.82;;;;;;;27.53;30.92;94033.81;5124373;28;20129;-76
2022/07/24 08:03:49;;;;;;;24.48;7.55;;;;;;;27.63;31.17;94038.34;5123815;28;20054;-76
2022/07/24 08:06:15;;;;;;;15.00;7.53;;;;;;;27.66;31.73;94040.25;5123870;28;20024;-76
2022/07/24 08:08:40;;;;;;;19.27;7.05;;;;;;;27.71;31.65;94042.50;5124109;28;20055;-77
2022/07/24 08:11:05;;;;;;;23.45;7.65;;;;;;;27.84;32.63;94050.84;5123906;28;20024;-76
2022/07/24 08:13:31;;;;;;;17.75;7.05;;;;;;;27.88;32.78;94035.16;5123788;28;20367;-76
2022/07/24 08:15:56;;;;;;;17.15;7.20;;;;;;;27.99;32.42;94051.41;5123828;28;20015;-76
2022/07/24 08:18:22;;;;;;;21.88;8.10;;;;;;;28.06;33.04;94048.53;5123804;28;20060;-77
2022/07/24 08:20:48;;;;;;;35.42;10.07;;;;;;;28.16;32.75;94050.28;5123682;28;20024;-76
2022/07/24 08:23:13;;;;;;;19.15;8.68;;;;;;;28.17;33.05;94040.09;5123537;28;20035;-76
2022/07/24 08:25:39;;;;;;;19.20;8.02;;;;;;;28.26;32.58;94039.53;5123564;28;20035;-76
2022/07/24 08:28:05;;;;;;;20.98;8.85;;;;;;;28.34;33.07;94049.16;5123500;28;20039;-76
2022/07/24 08:30:30;;;;;;;18.23;7.78;;;;;;;28.48;33.50;94040.66;5123706;28;20027;-76
2022/07/24 08:32:56;;;;;;;16.85;8.85;;;;;;;28.71;32.67;94047.25;5123785;28;20028;-76
2022/07/24 08:35:23;;;;;;;21.08;8.07;;;;;;;28.94;32.39;94049.06;5123438;28;20045;-76
2022/07/24 08:37:49;;;;;;;19.50;8.63;;;;;;;29.16;31.94;94046.63;5123449;28;20252;-76
2022/07/24 08:40:14;;;;;;;24.02;8.25;;;;;;;29.36;32.44;94041.84;5123267;28;20020;-77
2022/07/24 08:42:41;;;;;;;13.38;7.80;;;;;;;29.58;31.49;94044.06;5123260;28;20217;-77
2022/07/24 08:45:07;;;;;;;17.65;8.50;;;;;;;29.85;31.54;94045.75;5123254;28;20026;-77
2022/07/24 08:47:33;;;;;;;33.13;7.85;;;;;;;30.13;31.13;94047.72;5123385;28;20042;-76
2022/07/24 08:50:01;;;;;;;23.15;8.52;;;;;;;30.26;30.11;94036.00;5123327;28;20077;-76
2022/07/24 08:52:27;;;;;;;20.52;7.88;;;;;;;30.36;30.41;94034.97;5123353;28;20023;-76
2022/07/24 08:54:53;;;;;;;21.90;7.90;;;;;;;30.51;30.89;94040.81;5123333;28;20226;-77
2022/07/24 08:57:19;;;;;;;29.00;9.35;;;;;;;30.62;30.39;94035.03;5123309;28;20213;-77
2022/07/24 08:59:45;;;;;;;23.75;8.20;;;;;;;30.66;32.64;94030.94;5123230;28;20019;-76
2022/07/24 09:02:11;;;;;;;19.60;7.45;;;;;;;30.69;32.88;94032.81;5122845;28;20025;-76
2022/07/24 09:04:42;;;;;;;20.42;7.60;;;;;;;30.79;33.62;94039.97;5123167;28;20023;-77
2022/07/24 09:07:19;;;;;;;27.40;8.30;;;;;;;30.88;33.26;94033.09;5123055;28;20086;-76
2022/07/24 09:09:58;;;;;;;17.73;7.57;;;;;;;30.95;32.67;94047.38;5123018;28;20065;-76
2022/07/24 09:12:24;;;;;;;15.38;7.63;;;;;;;30.95;31.87;94038.34;5123176;28;20025;-76
2022/07/24 09:14:49;;;;;;;18.40;7.43;;;;;;;30.91;31.06;94034.94;5122888;28;20027;-76
2022/07/24 09:17:19;;;;;;;23.63;8.07;;;;;;;30.84;33.81;94038.66;5122824;28;20048;-76
2022/07/24 09:19:48;;;;;;;18.40;7.95;;;;;;;30.76;30.89;94040.09;5122785;28;20329;-76
2022/07/24 09:22:41;;;;;;;16.42;8.65;;;;;;;30.76;30.22;94035.34;5122803;28;20030;-76
2022/07/24 09:25:25;;;;;;;17.08;8.30;;;;;;;30.86;30.48;94032.72;5122762;28;20068;-76
2022/07/24 09:27:55;;;;;;;23.40;8.18;;;;;;;30.99;30.44;94031.53;5122920;28;20019;-76
2022/07/24 09:30:24;;;;;;;34.55;7.75;;;;;;;31.00;29.80;94032.31;5122839;28;20042;-77
2022/07/24 09:32:54;;;;;;;19.45;8.10;;;;;;;30.92;30.78;94042.78;5123053;28;20036;-76
2022/07/24 09:35:22;;;;;;;16.88;8.10;;;;;;;30.96;30.51;94032.41;5122782;28;20031;-76
2022/07/24 09:37:56;;;;;;;20.15;8.57;;;;;;;30.94;29.95;94040.34;5122729;28;20229;-76
2022/07/24 09:40:28;;;;;;;17.40;7.95;;;;;;;31.02;29.31;94031.84;5122979;28;20041;-76
2022/07/24 09:43:16;;;;;;;22.25;9.05;;;;;;;31.13;29.19;94035.06;5122907;28;20256;-76
2022/07/24 09:45:52;;;;;;;21.20;7.40;;;;;;;31.16;29.17;94028.66;5122437;28;20089;-77
2022/07/24 09:48:22;;;;;;;18.40;6.78;;;;;;;31.31;30.42;94021.50;5122766;28;20065;-77
2022/07/24 09:50:51;;;;;;;18.85;6.88;;;;;;;31.48;25.63;94015.88;5122565;28;20248;-76
2022/07/24 09:53:19;;;;;;;14.18;7.25;;;;;;;31.72;25.69;94019.75;5122708;28;20023;-76
2022/07/24 09:55:55;;;;;;;19.23;5.57;;;;;;;31.85;26.12;94013.44;5122570;28;20027;-76
2022/07/24 09:58:21;;;;;;;13.02;5.38;;;;;;;31.89;25.55;94003.81;5121419;28;20031;-76
2022/07/24 10:00:47;;;;;;;15.40;5.50;;;;;;;31.99;26.86;94010.16;5122603;28;20023;-76
2022/07/24 10:03:14;;;;;;;13.25;5.43;;;;;;;32.05;23.21;94010.41;5122324;28;20027;-76
2022/07/24 10:05:45;;;;;;;14.23;5.05;;;;;;;32.09;23.18;94008.28;5122568;28;20023;-76
2022/07/24 10:08:13;;;;;;;14.87;5.47;;;;;;;32.23;24.37;94007.78;5122625;28;20019;-76
2022/07/24 10:10:41;;;;;;;16.98;6.28;;;;;;;32.32;23.36;94004.28;5122525;28;20019;-76
2022/07/24 10:13:08;;;;;;;21.17;5.57;;;;;;;32.32;22.10;94010.59;5122411;28;20323;-76
2022/07/24 10:15:37;;;;;;;21.77;6.57;;;;;;;32.34;23.68;94013.69;5124837;28;20213;-76
2022/07/24 10:18:11;;;;;;;11.73;6.05;;;;;;;32.46;22.92;94000.25;5126080;28;20036;-77
2022/07/24 10:20:40;;;;;;;11.73;5.10;;;;;;;32.43;21.28;94012.97;5126332;28;20090;-77
2022/07/24 10:23:06;;;;;;;13.30;5.47;;;;;;;32.45;22.04;94002.25;5126056;28;20034;-76
2022/07/24 10:26:05;;;;;;;16.65;5.75;;;;;;;32.51;23.71;93994.91;5126082;28;20052;-76
2022/07/24 10:28:40;;;;;;;14.00;4.88;;;;;;;32.50;23.03;93998.88;5126135;28;20195;-77
2022/07/24 10:31:08;;;;;;;18.65;5.40;;;;;;;32.52;22.21;93999.19;5126071;28;20018;-76
2022/07/24 10:33:35;;;;;;;9.93;4.95;;;;;;;32.54;22.09;93991.28;5126027;28;20191;-78
2022/07/24 10:36:06;;;;;;;13.30;4.90;;;;;;;32.63;22.11;93995.28;5126105;28;20325;-77
2022/07/24 10:38:38;;;;;;;16.10;5.05;;;;;;;32.75;22.94;93992.47;5125614;28;20320;-77
2022/07/24 10:41:12;;;;;;;11.25;5.60;;;;;;;32.81;22.64;93992.63;5126024;28;20072;-77
2022/07/24 10:43:38;;;;;;;16.27;5.25;;;;;;;32.83;22.15;93987.44;5125847;28;20020;-77
2022/07/24 10:46:03;;;;;;;13.65;5.22;;;;;;;32.85;21.48;93989.72;5125952;28;20066;-76
2022/07/24 10:48:32;;;;;;;19.27;6.15;;;;;;;32.90;22.81;93981.63;5125592;28;20026;-77
2022/07/24 10:50:57;;;;;;;14.45;6.18;;;;;;;33.14;23.71;93989.41;5125322;28;20065;-77
2022/07/24 10:53:28;;;;;;;14.80;5.38;;;;;;;33.38;23.66;93986.81;5125756;28;20023;-77
2022/07/24 10:56:17;;;;;;;13.13;5.32;;;;;;;33.32;22.83;93980.38;5125727;28;20513;-77
2022/07/24 10:59:12;;;;;;;11.88;5.22;;;;;;;33.30;21.32;93980.84;5125597;28;20134;-76
2022/07/24 11:01:44;;;;;;;10.40;4.80;;;;;;;33.42;20.74;93972.88;5125418;28;20325;-76
2022/07/24 11:04:18;;;;;;;11.57;5.35;;;;;;;33.50;21.54;93969.38;5125497;28;20027;-77
2022/07/24 11:06:54;;;;;;;12.75;7.13;;;;;;;33.57;20.55;93962.75;5125088;28;20050;-76
2022/07/24 11:09:27;;;;;;;9.23;4.95;;;;;;;33.73;21.33;93968.03;5125098;28;20313;-76
2022/07/24 11:11:56;;;;;;;10.30;4.53;;;;;;;33.91;20.32;93964.47;5125065;27;20062;-76
2022/07/24 11:14:45;;;;;;;11.65;5.72;;;;;;;33.94;20.24;93966.31;5125399;28;20206;-76
2022/07/24 11:17:37;;;;;;;21.05;5.43;;;;;;;34.00;20.78;93958.16;5124878;28;20329;-77
2022/07/24 11:20:12;;;;;;;8.48;4.32;;;;;;;34.20;20.80;93966.00;5125283;28;20218;-77
2022/07/24 11:22:49;;;;;;;9.98;6.05;;;;;;;34.30;22.03;93961.22;5125022;28;20066;-77